Terminal Aerodrome Forecast
Issued by NWS Mt. Holly, NJ

Home | Current Version | Previous Version | Text Only | Print | Product List | Glossary On
Versions: 1 2 3 4 5 6 7 8 9 10 11 12 13 14 15 16 17 18 19 20 21 22 23 24 25 26 27 28 29
000
FTUS41 KPHI 042345
TAFPHL
TAF
KPHL 042345Z 0500/0606 VRB03KT 2SM -RA BR OVC025
     FM050600 32008KT 2SM -RAPL BR OVC009
     FM050800 35010KT 1SM -SNPL OVC009
     FM051000 35013G20KT 3/4SM -SN BR OVC006
     FM052000 34010G18KT P6SM OVC020
     FM060100 33010KT P6SM FEW250=

USA.gov is the U.S. government's official web portal to all federal, state and local government web resources and services.